Time;durP1;ratioP1;P1;durP2;ratioP2;P2;SDS_P1;SDS_P2;PMS_P1;PMS_P2;Temp;Humidity;BMP_temperature;BMP_pressure;BME280_temperature;BME280_humidity;BME280_pressure;Samples;Min_cycle;Max_cycle;Signal;HPM_P1;HPM_P2
2022/05/21 00:01:42;;;;;;;7.20;6.28;;;15.00;99.90;;;;;;5067134;28;20041;-69
2022/05/21 00:04:08;;;;;;;8.43;6.80;;;15.00;99.90;;;;;;5071104;28;20135;-69
2022/05/21 00:06:33;;;;;;;10.77;7.60;;;14.90;99.90;;;;;;5066168;28;20032;-69
2022/05/21 00:08:59;;;;;;;6.82;5.63;;;15.00;99.90;;;;;;5059302;28;20021;-69
2022/05/21 00:11:25;;;;;;;7.93;6.97;;;15.00;99.90;;;;;;5064762;28;20032;-68
2022/05/21 00:13:51;;;;;;;8.63;5.72;;;15.00;99.90;;;;;;5071184;28;20032;-68
2022/05/21 00:16:17;;;;;;;7.28;5.50;;;14.90;99.90;;;;;;5071711;28;20449;-69
2022/05/21 00:18:43;;;;;;;6.63;5.20;;;14.80;99.90;;;;;;5061403;28;20108;-69
2022/05/21 00:21:11;;;;;;;10.00;5.70;;;14.90;99.90;;;;;;5063544;28;20115;-69
2022/05/21 00:23:37;;;;;;;8.60;5.38;;;14.90;99.90;;;;;;5069769;28;20052;-69
2022/05/21 00:26:06;;;;;;;6.10;5.18;;;14.80;99.90;;;;;;5066988;28;20024;-69
2022/05/21 00:28:33;;;;;;;8.80;5.35;;;14.90;99.90;;;;;;5069625;28;20499;-69
2022/05/21 00:31:00;;;;;;;8.40;4.97;;;14.80;99.90;;;;;;5063692;28;20474;-69
2022/05/21 00:33:27;;;;;;;6.85;4.80;;;14.90;99.90;;;;;;5067872;28;20020;-69
2022/05/21 00:35:53;;;;;;;4.97;4.28;;;14.80;99.90;;;;;;5071598;28;20039;-68
2022/05/21 00:38:20;;;;;;;11.02;4.28;;;14.80;99.90;;;;;;5062262;28;20428;-69
2022/05/21 00:40:46;;;;;;;8.52;4.25;;;14.80;99.90;;;;;;5065593;28;20044;-69
2022/05/21 00:43:36;;;;;;;12.73;4.30;;;14.80;99.90;;;;;;5069756;28;20056;-69
2022/05/21 00:46:07;;;;;;;8.63;3.78;;;14.80;99.90;;;;;;5071515;28;20021;-69
2022/05/21 00:48:35;;;;;;;6.53;3.70;;;14.70;99.90;;;;;;5067378;28;20048;-69
2022/05/21 00:51:01;;;;;;;4.97;3.20;;;14.80;99.90;;;;;;5066149;28;20057;-69
2022/05/21 00:53:28;;;;;;;4.35;2.97;;;14.70;99.90;;;;;;5071852;28;20028;-69
2022/05/21 00:55:54;;;;;;;4.18;3.13;;;14.70;99.90;;;;;;5063070;28;20035;-68
2022/05/21 01:01:11;;;;;;;8.65;3.10;;;14.70;99.90;;;;;;5074297;28;20139;-69
2022/05/21 01:03:37;;;;;;;6.65;2.92;;;14.70;99.90;;;;;;5074596;28;20092;-69
2022/05/21 01:06:03;;;;;;;8.52;3.08;;;14.80;99.90;;;;;;5074908;28;20031;-69
2022/05/21 01:08:30;;;;;;;5.35;2.45;;;14.70;99.90;;;;;;5075036;28;20882;-69
2022/05/21 01:11:01;;;;;;;5.90;2.85;;;14.70;99.90;;;;;;5073007;28;20382;-68
2022/05/21 01:13:31;;;;;;;6.93;3.45;;;14.70;99.90;;;;;;5072442;28;20025;-69
2022/05/21 01:15:58;;;;;;;7.63;2.72;;;14.60;99.90;;;;;;5074957;28;20484;-68
2022/05/21 01:18:24;;;;;;;7.35;2.90;;;14.70;99.90;;;;;;5075351;28;20450;-69
2022/05/21 01:20:56;;;;;;;4.13;2.55;;;14.60;99.90;;;;;;5074398;28;20111;-69
2022/05/21 01:23:22;;;;;;;7.57;3.00;;;14.60;99.90;;;;;;5073900;28;20451;-69
2022/05/21 01:25:50;;;;;;;8.40;2.88;;;14.70;99.90;;;;;;5066068;28;20037;-69
2022/05/21 01:28:20;;;;;;;6.28;2.97;;;14.60;99.90;;;;;;5072783;28;20039;-69
2022/05/21 01:30:47;;;;;;;9.68;2.50;;;14.60;99.90;;;;;;5073787;28;20082;-69
2022/05/21 01:33:17;;;;;;;7.72;2.58;;;14.60;99.90;;;;;;5074772;28;20073;-69
2022/05/21 01:35:44;;;;;;;7.15;3.00;;;14.50;99.90;;;;;;5074373;28;20151;-69
2022/05/21 01:38:14;;;;;;;6.82;2.90;;;14.60;99.90;;;;;;5074518;28;20487;-69
2022/05/21 01:40:40;;;;;;;6.25;2.50;;;14.60;99.90;;;;;;5070781;28;20044;-69
2022/05/21 01:45:52;;;;;;;9.40;2.90;;;14.70;99.90;;;;;;5071148;28;20400;-69
2022/05/21 01:48:21;;;;;;;11.50;2.63;;;14.60;99.90;;;;;;5074351;28;20031;-69
2022/05/21 01:50:48;;;;;;;5.55;2.40;;;14.60;99.90;;;;;;5073695;28;20050;-69
2022/05/21 01:53:15;;;;;;;6.40;2.35;;;14.70;99.90;;;;;;5072662;28;20444;-69
2022/05/21 01:55:41;;;;;;;9.57;2.50;;;14.70;99.90;;;;;;5074007;28;20457;-69
2022/05/21 01:58:07;;;;;;;6.88;2.42;;;14.60;99.90;;;;;;5074546;28;20040;-69
2022/05/21 02:00:33;;;;;;;7.88;2.72;;;14.70;99.90;;;;;;5073549;28;20145;-69
2022/05/21 02:02:59;;;;;;;9.13;2.45;;;14.60;99.90;;;;;;5073571;28;20563;-69
2022/05/21 02:05:25;;;;;;;5.40;2.67;;;14.60;99.90;;;;;;5071792;28;20024;-69
2022/05/21 02:07:50;;;;;;;7.65;3.17;;;14.60;99.90;;;;;;5074251;28;20056;-69
2022/05/21 02:10:16;;;;;;;4.85;2.72;;;14.60;99.90;;;;;;5072799;28;20081;-69
2022/05/21 02:12:42;;;;;;;6.70;2.30;;;14.70;99.90;;;;;;5073386;28;20021;-69
2022/05/21 02:15:09;;;;;;;6.45;2.95;;;14.70;99.90;;;;;;5074351;28;20036;-69
2022/05/21 02:17:34;;;;;;;9.23;3.47;;;14.70;99.90;;;;;;5072830;28;20350;-69
2022/05/21 02:20:00;;;;;;;7.55;2.70;;;14.70;99.90;;;;;;5072053;28;20043;-69
2022/05/21 02:22:28;;;;;;;7.65;2.90;;;14.70;99.90;;;;;;5073744;28;20028;-69
2022/05/21 02:24:54;;;;;;;9.63;2.60;;;14.70;99.90;;;;;;5071410;28;20032;-69
2022/05/21 02:27:20;;;;;;;10.80;2.60;;;14.70;99.90;;;;;;5073458;28;20029;-69
2022/05/21 02:29:46;;;;;;;9.70;3.08;;;14.80;99.90;;;;;;5074234;28;20055;-69
2022/05/21 02:32:12;;;;;;;12.18;3.15;;;14.80;99.90;;;;;;5073783;28;20041;-69
2022/05/21 02:34:39;;;;;;;6.70;2.90;;;14.80;99.90;;;;;;5073133;28;20111;-69
2022/05/21 02:39:50;;;;;;;14.18;3.42;;;14.80;99.90;;;;;;5065537;28;20171;-69
2022/05/21 02:45:00;;;;;;;6.97;2.88;;;14.80;99.90;;;;;;5069205;28;20086;-69
2022/05/21 02:47:26;;;;;;;7.90;3.20;;;14.70;99.90;;;;;;5074458;28;20430;-69
2022/05/21 02:49:52;;;;;;;6.78;2.88;;;14.70;99.90;;;;;;5073310;28;20071;-69
2022/05/21 02:52:17;;;;;;;7.18;2.95;;;14.80;99.90;;;;;;5075053;28;20037;-69
2022/05/21 02:54:43;;;;;;;8.80;3.00;;;14.70;99.90;;;;;;5071172;28;20427;-69
2022/05/21 02:57:09;;;;;;;8.95;2.88;;;14.70;99.90;;;;;;5072523;28;20028;-69
2022/05/21 02:59:38;;;;;;;8.60;2.90;;;14.60;99.90;;;;;;5075013;28;20469;-69
2022/05/21 03:02:05;;;;;;;14.25;3.67;;;14.70;99.90;;;;;;5075563;28;20515;-69
2022/05/21 03:04:31;;;;;;;9.00;2.88;;;14.70;99.90;;;;;;5076361;28;20059;-69
2022/05/21 03:06:57;;;;;;;9.13;3.13;;;14.70;99.90;;;;;;5076237;28;20503;-69
2022/05/21 03:12:09;;;;;;;11.15;3.13;;;14.70;99.90;;;;;;5074520;28;20054;-68
2022/05/21 03:14:35;;;;;;;8.25;3.22;;;14.70;99.90;;;;;;5068788;28;20071;-69
2022/05/21 03:17:01;;;;;;;9.30;3.45;;;14.70;99.90;;;;;;5072751;28;20051;-69
2022/05/21 03:19:32;;;;;;;7.20;3.25;;;14.70;99.90;;;;;;5077528;28;20028;-69
2022/05/21 03:21:58;;;;;;;10.77;3.65;;;14.70;99.90;;;;;;5076679;28;20070;-69
2022/05/21 03:24:25;;;;;;;6.60;3.30;;;14.80;99.90;;;;;;5075700;28;20028;-69
2022/05/21 03:26:50;;;;;;;7.22;2.90;;;14.70;99.90;;;;;;5075688;28;20040;-69
2022/05/21 03:29:16;;;;;;;8.48;3.10;;;14.80;99.90;;;;;;5076438;28;20033;-69
2022/05/21 03:31:42;;;;;;;9.90;3.55;;;14.60;99.90;;;;;;5082958;28;20033;-69
2022/05/21 03:34:08;;;;;;;10.02;3.50;;;14.60;99.90;;;;;;5076191;28;20032;-69
2022/05/21 03:36:34;;;;;;;12.05;2.80;;;14.60;99.90;;;;;;5076393;28;20029;-69
2022/05/21 03:39:00;;;;;;;10.35;3.38;;;14.70;99.90;;;;;;5069597;28;20096;-69
2022/05/21 03:41:26;;;;;;;14.10;4.10;;;14.70;99.90;;;;;;5074294;28;20119;-69
2022/05/21 03:43:54;;;;;;;8.02;3.33;;;14.60;99.90;;;;;;5076459;28;20496;-69
2022/05/21 03:46:20;;;;;;;12.88;3.58;;;14.70;99.90;;;;;;5076922;28;20024;-69
2022/05/21 03:48:45;;;;;;;9.70;3.47;;;14.60;99.90;;;;;;5076900;28;20562;-69
2022/05/21 03:51:11;;;;;;;10.85;4.32;;;14.60;99.90;;;;;;5076575;28;20469;-69
2022/05/21 03:53:37;;;;;;;8.00;3.35;;;14.60;99.90;;;;;;5075813;28;20052;-69
2022/05/21 03:56:04;;;;;;;15.25;4.00;;;14.50;99.90;;;;;;5076750;28;20024;-69
2022/05/21 03:58:31;;;;;;;10.25;3.33;;;14.40;99.90;;;;;;5076549;28;20032;-69
2022/05/21 04:00:56;;;;;;;7.88;3.15;;;14.40;99.90;;;;;;5075437;28;20097;-69
2022/05/21 04:03:22;;;;;;;10.40;3.17;;;14.40;99.90;;;;;;5075966;28;20024;-69
2022/05/21 04:05:48;;;;;;;10.10;3.65;;;14.40;99.90;;;;;;5071385;28;20033;-69
2022/05/21 04:08:16;;;;;;;10.32;3.83;;;14.40;99.90;;;;;;5076256;28;20024;-67
2022/05/21 04:10:42;;;;;;;11.07;3.10;;;14.50;99.90;;;;;;5074524;28;20107;-69
2022/05/21 04:13:07;;;;;;;8.77;2.92;;;14.60;99.90;;;;;;5073112;28;20107;-69
2022/05/21 04:15:34;;;;;;;11.32;3.80;;;14.60;99.90;;;;;;5075997;28;20040;-69
2022/05/21 04:18:00;;;;;;;6.22;3.05;;;14.50;99.90;;;;;;5075564;28;20448;-69
2022/05/21 04:20:27;;;;;;;7.68;3.40;;;14.50;99.90;;;;;;5074117;28;20043;-71
2022/05/21 04:22:52;;;;;;;11.48;3.42;;;14.50;99.90;;;;;;5068131;28;20024;-72
2022/05/21 04:25:19;;;;;;;12.60;3.38;;;14.60;99.90;;;;;;5072405;28;20439;-72
2022/05/21 04:27:44;;;;;;;11.93;3.10;;;14.60;99.90;;;;;;5074921;28;20028;-71
2022/05/21 04:30:25;;;;;;;13.82;3.75;;;14.60;99.90;;;;;;5075225;28;20381;-71
2022/05/21 04:32:51;;;;;;;11.15;3.72;;;14.70;99.90;;;;;;5072165;28;20035;-72
2022/05/21 04:35:18;;;;;;;11.73;3.83;;;14.70;99.90;;;;;;5076107;28;20028;-72
2022/05/21 04:37:44;;;;;;;10.55;4.15;;;14.60;99.90;;;;;;5074540;28;20107;-70
2022/05/21 04:40:16;;;;;;;13.60;4.20;;;14.50;99.90;;;;;;5075191;28;20446;-70
2022/05/21 04:42:42;;;;;;;7.78;3.53;;;14.50;99.90;;;;;;5073735;28;20059;-69
2022/05/21 04:45:08;;;;;;;9.55;4.03;;;14.50;99.90;;;;;;5076325;28;20157;-72
2022/05/21 04:47:35;;;;;;;14.73;5.38;;;14.50;99.90;;;;;;5067334;28;20024;-71
2022/05/21 04:50:01;;;;;;;13.80;4.68;;;14.60;99.90;;;;;;5074224;28;20020;-72
2022/05/21 04:52:26;;;;;;;12.25;4.80;;;14.60;99.90;;;;;;5067730;28;20059;-69
2022/05/21 04:54:52;;;;;;;12.05;5.10;;;14.60;99.90;;;;;;5072533;28;20063;-71
2022/05/21 04:57:18;;;;;;;17.75;6.45;;;14.60;99.90;;;;;;5074587;28;20559;-70
2022/05/21 04:59:43;;;;;;;14.43;5.30;;;14.70;99.90;;;;;;5075222;28;20384;-71
2022/05/21 05:02:09;;;;;;;14.40;5.18;;;14.80;99.90;;;;;;5073544;28;20064;-71
2022/05/21 05:04:35;;;;;;;11.60;4.40;;;14.70;99.90;;;;;;5072449;28;20107;-70
2022/05/21 05:07:06;;;;;;;19.13;6.38;;;14.80;99.90;;;;;;5074158;28;20101;-71
2022/05/21 05:09:39;;;;;;;14.15;6.05;;;14.80;99.90;;;;;;5073385;28;20021;-71
2022/05/21 05:12:06;;;;;;;15.18;6.32;;;14.80;99.90;;;;;;5073597;28;20086;-71
2022/05/21 05:14:32;;;;;;;19.13;7.13;;;14.90;99.90;;;;;;5073963;28;20370;-70
2022/05/21 05:16:58;;;;;;;17.45;7.22;;;14.90;99.90;;;;;;5073769;28;20021;-71
2022/05/21 05:19:23;;;;;;;20.60;8.25;;;14.90;99.90;;;;;;5074329;28;20556;-69
2022/05/21 05:21:49;;;;;;;16.23;7.35;;;14.80;99.90;;;;;;5073684;28;20564;-70
2022/05/21 05:24:15;;;;;;;17.83;7.63;;;14.90;99.90;;;;;;5071285;28;20484;-71
2022/05/21 05:26:40;;;;;;;19.17;7.40;;;14.90;99.90;;;;;;5073698;28;20075;-71
2022/05/21 05:29:06;;;;;;;18.20;7.85;;;15.00;99.90;;;;;;5074017;28;20032;-71
2022/05/21 05:31:32;;;;;;;21.30;8.80;;;14.90;99.90;;;;;;5074368;28;20033;-71
2022/05/21 05:33:58;;;;;;;20.05;9.32;;;15.00;99.90;;;;;;5074148;28;20025;-70
2022/05/21 05:36:24;;;;;;;22.27;9.77;;;15.00;99.90;;;;;;5072012;28;20032;-71
2022/05/21 05:38:50;;;;;;;28.42;10.10;;;15.10;99.90;;;;;;5072082;28;20469;-71
2022/05/21 05:41:15;;;;;;;23.10;9.23;;;15.10;99.90;;;;;;5072735;28;20036;-71
2022/05/21 05:43:41;;;;;;;24.52;10.50;;;15.10;99.90;;;;;;5070310;28;20524;-71
2022/05/21 05:46:07;;;;;;;27.23;10.38;;;15.00;99.90;;;;;;5075600;28;20035;-71
2022/05/21 05:48:33;;;;;;;25.13;10.48;;;15.00;99.90;;;;;;5074212;28;20066;-70
2022/05/21 05:51:02;;;;;;;21.80;10.73;;;15.10;99.90;;;;;;5069868;28;20028;-70
2022/05/21 05:53:27;;;;;;;25.27;11.35;;;15.20;99.90;;;;;;5070845;28;20096;-69
2022/05/21 05:55:54;;;;;;;28.13;12.63;;;15.30;99.90;;;;;;5070340;28;20420;-70
2022/05/21 06:01:14;;;;;;;22.75;11.80;;;15.30;99.90;;;;;;5066283;28;20048;-70
2022/05/21 06:03:42;;;;;;;33.95;12.30;;;15.40;99.90;;;;;;5073126;28;20090;-70
2022/05/21 06:06:07;;;;;;;28.77;13.45;;;15.50;99.90;;;;;;5072959;28;20025;-70
2022/05/21 06:08:34;;;;;;;24.25;12.85;;;15.40;99.90;;;;;;5062322;28;20462;-70
2022/05/21 06:10:59;;;;;;;23.55;13.55;;;15.50;99.90;;;;;;5070993;28;20034;-71
2022/05/21 06:13:25;;;;;;;27.55;13.13;;;15.50;99.90;;;;;;5072832;28;20119;-70
2022/05/21 06:15:51;;;;;;;22.88;11.75;;;15.50;99.90;;;;;;5073626;28;20032;-71
2022/05/21 06:18:20;;;;;;;25.80;12.27;;;15.50;99.90;;;;;;5073397;28;20112;-71
2022/05/21 06:20:46;;;;;;;27.35;11.82;;;15.40;99.90;;;;;;5073062;28;20044;-71
2022/05/21 06:23:12;;;;;;;28.27;12.68;;;15.40;99.90;;;;;;5073346;28;20498;-71
2022/05/21 06:25:38;;;;;;;32.42;12.80;;;15.50;99.90;;;;;;5068575;28;20028;-71
2022/05/21 06:28:05;;;;;;;30.75;13.23;;;15.60;99.90;;;;;;5077019;28;20100;-72
2022/05/21 06:30:33;;;;;;;32.00;13.15;;;15.50;99.90;;;;;;5077875;28;20056;-70
2022/05/21 06:33:10;;;;;;;35.97;14.05;;;15.50;99.90;;;;;;5075322;28;20469;-72
2022/05/21 06:35:35;;;;;;;30.45;13.15;;;15.70;99.90;;;;;;5075945;28;20029;-72
2022/05/21 06:38:01;;;;;;;29.83;12.68;;;15.70;99.90;;;;;;5076283;28;20025;-72
2022/05/21 06:40:27;;;;;;;31.80;13.82;;;15.80;99.90;;;;;;5074255;28;20458;-72
2022/05/21 06:42:52;;;;;;;24.23;13.60;;;15.80;99.90;;;;;;5077430;28;20108;-72
2022/05/21 06:45:18;;;;;;;35.10;14.70;;;15.80;99.90;;;;;;5075359;28;20032;-72
2022/05/21 06:47:44;;;;;;;25.25;11.88;;;15.90;99.90;;;;;;5070772;28;20048;-72
2022/05/21 06:50:10;;;;;;;28.95;12.63;;;15.90;99.90;;;;;;5061858;28;20106;-72
2022/05/21 06:52:39;;;;;;;28.60;14.57;;;16.00;99.90;;;;;;5066026;28;20021;-72
2022/05/21 06:55:05;;;;;;;24.35;12.65;;;16.00;99.90;;;;;;5065288;28;20013;-72
2022/05/21 06:57:32;;;;;;;24.65;12.93;;;16.10;99.90;;;;;;5066924;28;20029;-71
2022/05/21 06:59:58;;;;;;;22.92;11.88;;;16.20;99.90;;;;;;5069204;28;20040;-71
2022/05/21 07:02:24;;;;;;;21.08;12.30;;;16.20;99.90;;;;;;5063838;28;20654;-71
2022/05/21 07:07:43;;;;;;;24.73;13.07;;;16.20;99.90;;;;;;5074326;28;20417;-70
2022/05/21 07:10:15;;;;;;;23.35;12.48;;;16.20;99.90;;;;;;5072399;28;20035;-70
2022/05/21 07:12:41;;;;;;;23.63;12.55;;;16.20;99.90;;;;;;5073331;28;20024;-70
2022/05/21 07:15:07;;;;;;;25.95;12.60;;;16.10;99.90;;;;;;5074958;28;20036;-71
2022/05/21 07:17:33;;;;;;;28.70;12.35;;;16.10;99.90;;;;;;5074045;28;20020;-70
2022/05/21 07:20:02;;;;;;;27.65;13.30;;;16.20;99.90;;;;;;5063996;28;20041;-71
2022/05/21 07:22:27;;;;;;;28.58;12.88;;;16.20;99.90;;;;;;5068368;28;20020;-72
2022/05/21 07:24:53;;;;;;;24.60;13.35;;;16.40;99.90;;;;;;5076938;28;20024;-72
2022/05/21 07:27:18;;;;;;;28.02;13.60;;;16.50;99.90;;;;;;5076572;28;20481;-72
2022/05/21 07:29:44;;;;;;;28.63;12.63;;;16.50;99.90;;;;;;5066463;28;20060;-72
2022/05/21 07:32:20;;;;;;;27.00;12.40;;;16.50;99.90;;;;;;5072885;28;20499;-72
2022/05/21 07:34:45;;;;;;;25.10;11.90;;;16.60;99.90;;;;;;5072514;28;20029;-73
2022/05/21 07:37:11;;;;;;;22.23;11.27;;;16.60;99.90;;;;;;5074998;28;20028;-72
2022/05/21 07:39:37;;;;;;;24.88;11.73;;;16.60;99.90;;;;;;5072256;28;20021;-72
2022/05/21 07:42:03;;;;;;;23.02;11.73;;;16.80;99.90;;;;;;5075543;28;20410;-72
2022/05/21 07:44:28;;;;;;;27.17;12.45;;;16.90;99.90;;;;;;5077701;28;20107;-72
2022/05/21 07:46:54;;;;;;;27.55;11.57;;;16.90;99.90;;;;;;5075852;28;20055;-72
2022/05/21 07:49:20;;;;;;;24.50;11.43;;;17.00;99.90;;;;;;5075891;28;20020;-72
2022/05/21 07:51:45;;;;;;;22.55;11.27;;;17.10;99.90;;;;;;5069699;28;20056;-72
2022/05/21 07:54:11;;;;;;;24.52;11.07;;;17.00;99.90;;;;;;5067003;28;20033;-72
2022/05/21 07:56:37;;;;;;;22.48;11.45;;;17.10;99.90;;;;;;5062525;28;20070;-72
2022/05/21 07:59:03;;;;;;;20.58;10.75;;;17.20;99.90;;;;;;5070411;28;20020;-72
2022/05/21 08:01:28;;;;;;;23.38;11.05;;;17.30;99.90;;;;;;5065210;28;20032;-73
2022/05/21 08:03:54;;;;;;;31.23;12.50;;;17.30;99.90;;;;;;5064145;28;20428;-72
2022/05/21 08:06:19;;;;;;;26.15;12.10;;;17.40;99.90;;;;;;5067318;28;20021;-72
2022/05/21 08:08:46;;;;;;;23.13;11.15;;;17.40;99.90;;;;;;5070821;28;20139;-72
2022/05/21 08:11:12;;;;;;;27.83;10.85;;;17.40;99.90;;;;;;5067278;28;20032;-72
2022/05/21 08:13:39;;;;;;;24.13;10.50;;;17.30;99.90;;;;;;5071700;28;20017;-72
2022/05/21 08:16:05;;;;;;;19.23;10.65;;;17.30;99.90;;;;;;5067588;28;20087;-72
2022/05/21 08:18:31;;;;;;;21.92;10.48;;;17.50;99.90;;;;;;5069151;28;20472;-73
2022/05/21 08:20:57;;;;;;;19.45;10.90;;;17.80;99.90;;;;;;5063630;28;20488;-72
2022/05/21 08:28:51;;;;;;;16.67;10.07;;;17.90;99.90;;;;;;5068961;28;20416;-72
2022/05/21 08:31:17;;;;;;;22.77;11.43;;;18.00;99.90;;;;;;5065524;28;20017;-72
2022/05/21 08:33:43;;;;;;;20.10;10.02;;;18.00;99.90;;;;;;5068246;28;20051;-72
2022/05/21 08:36:09;;;;;;;21.92;10.77;;;17.80;99.90;;;;;;5065586;28;20539;-72
2022/05/21 08:38:35;;;;;;;19.88;9.05;;;17.90;99.90;;;;;;5068601;28;20028;-73
2022/05/21 08:41:23;;;;;;;26.52;8.82;;;18.00;99.90;;;;;;5064279;28;20032;-72
2022/05/21 08:44:04;;;;;;;20.65;8.80;;;17.90;99.90;;;;;;5072713;28;20036;-72
2022/05/21 08:46:47;;;;;;;14.57;9.00;;;17.90;99.90;;;;;;5073906;28;20036;-72
2022/05/21 08:49:25;;;;;;;16.58;7.70;;;17.90;99.90;;;;;;5087468;28;20032;-72
2022/05/21 08:52:20;;;;;;;12.55;8.35;;;18.00;99.90;;;;;;5062226;28;20021;-72
2022/05/21 08:54:48;;;;;;;17.10;8.50;;;18.30;99.90;;;;;;5054050;28;20050;-73
2022/05/21 08:57:46;;;;;;;23.83;8.85;;;18.10;99.90;;;;;;5065338;28;20013;-73
2022/05/21 09:00:21;;;;;;;16.67;7.90;;;18.40;99.90;;;;;;5068704;28;20135;-73
2022/05/21 09:02:48;;;;;;;15.70;7.32;;;18.90;99.90;;;;;;5071397;28;20412;-72
2022/05/21 09:05:16;;;;;;;20.85;8.45;;;19.10;99.90;;;;;;5062986;28;20024;-72
2022/05/21 09:08:02;;;;;;;15.77;8.48;;;19.10;99.90;;;;;;5065716;28;20397;-73
2022/05/21 09:11:03;;;;;;;17.10;8.27;;;19.20;99.90;;;;;;5061861;28;20025;-73
2022/05/21 09:13:46;;;;;;;16.75;9.80;;;19.10;99.90;;;;;;5063441;28;20059;-73
2022/05/21 09:19:00;;;;;;;13.00;8.48;;;18.80;99.90;;;;;;5067326;28;20043;-73
2022/05/21 09:21:27;;;;;;;18.83;8.43;;;18.70;99.90;;;;;;5074104;28;20043;-72
2022/05/21 09:23:53;;;;;;;19.00;9.50;;;18.50;99.90;;;;;;5072278;28;20024;-72
2022/05/21 09:26:23;;;;;;;17.00;9.05;;;18.40;99.90;;;;;;5071617;28;20078;-73
2022/05/21 09:28:49;;;;;;;18.33;9.32;;;18.30;99.90;;;;;;5072558;28;20025;-73
2022/05/21 09:31:27;;;;;;;20.77;8.57;;;18.40;99.90;;;;;;5072317;28;20111;-74
2022/05/21 09:33:55;;;;;;;17.98;10.85;;;18.60;99.90;;;;;;5074168;28;20498;-73
2022/05/21 09:36:32;;;;;;;18.73;9.75;;;18.80;99.90;;;;;;5075990;28;20025;-73
2022/05/21 09:38:58;;;;;;;16.23;9.23;;;19.00;99.90;;;;;;5070506;28;20025;-73
2022/05/21 09:41:27;;;;;;;15.50;9.32;;;19.00;99.90;;;;;;5073150;28;20032;-73
2022/05/21 09:46:40;;;;;;;17.88;8.95;;;19.60;99.90;;;;;;5074636;28;20039;-73
2022/05/21 09:49:28;;;;;;;17.05;6.80;;;19.80;99.90;;;;;;5075208;28;20047;-73
2022/05/21 09:52:01;;;;;;;15.85;6.50;;;20.00;99.90;;;;;;5069274;28;20037;-72
2022/05/21 09:54:33;;;;;;;12.68;7.00;;;20.30;99.90;;;;;;5070885;28;20119;-73
2022/05/21 09:56:59;;;;;;;12.75;5.80;;;20.30;99.90;;;;;;5071863;28;20380;-73
2022/05/21 09:59:29;;;;;;;11.80;6.15;;;20.30;99.90;;;;;;5074357;28;20020;-74
2022/05/21 10:01:59;;;;;;;11.63;5.47;;;20.20;99.90;;;;;;5073712;28;20039;-71
2022/05/21 10:04:24;;;;;;;12.57;6.07;;;20.20;99.90;;;;;;5078695;28;20119;-73
2022/05/21 10:07:06;;;;;;;17.15;7.00;;;20.00;99.90;;;;;;5077213;28;20481;-74
2022/05/21 10:12:39;;;;;;;9.32;6.50;;;20.10;99.90;;;;;;5077503;28;20161;-73
2022/05/21 10:15:12;;;;;;;12.75;5.93;;;20.00;99.90;;;;;;5076767;28;20033;-74
2022/05/21 10:17:51;;;;;;;15.75;5.50;;;20.20;99.90;;;;;;5074268;28;20021;-73
2022/05/21 10:20:26;;;;;;;13.27;5.80;;;20.40;99.90;;;;;;5077802;28;20036;-73
2022/05/21 10:23:10;;;;;;;10.77;5.78;;;20.30;99.90;;;;;;5076627;28;20021;-74
2022/05/21 10:25:52;;;;;;;10.85;5.68;;;20.20;99.90;;;;;;5078110;28;20021;-74
2022/05/21 10:28:42;;;;;;;13.73;6.05;;;20.20;99.90;;;;;;5075833;28;20055;-73
2022/05/21 10:31:42;;;;;;;16.15;6.55;;;20.30;99.90;;;;;;5077731;28;20054;-74
2022/05/21 10:34:08;;;;;;;12.25;5.80;;;20.50;99.90;;;;;;5077447;28;20460;-74
2022/05/21 10:36:48;;;;;;;16.17;6.20;;;20.80;99.90;;;;;;5077591;28;20039;-74
2022/05/21 10:39:34;;;;;;;13.13;5.88;;;20.80;99.90;;;;;;5077227;28;20020;-74
2022/05/21 10:42:03;;;;;;;13.50;6.40;;;20.40;99.90;;;;;;5076858;28;20044;-73
2022/05/21 10:44:52;;;;;;;17.48;6.65;;;20.30;99.90;;;;;;5076754;28;20032;-74
2022/05/21 10:47:49;;;;;;;15.57;6.18;;;20.30;99.90;;;;;;5077578;28;20027;-73
2022/05/21 10:50:33;;;;;;;13.73;6.30;;;20.50;99.90;;;;;;5076497;28;20492;-74
2022/05/21 10:53:14;;;;;;;11.77;5.85;;;20.80;99.90;;;;;;5077422;28;20099;-74
2022/05/21 10:56:04;;;;;;;14.02;5.85;;;21.20;99.90;;;;;;5077093;28;20433;-74
2022/05/21 10:59:00;;;;;;;12.05;6.00;;;21.40;99.90;;;;;;5075763;28;20029;-74
2022/05/21 11:01:29;;;;;;;11.88;5.82;;;21.40;99.90;;;;;;5078284;28;20040;-74
2022/05/21 11:04:15;;;;;;;11.60;6.47;;;21.30;99.90;;;;;;5076238;28;20048;-76
2022/05/21 11:07:05;;;;;;;11.68;6.25;;;21.40;99.90;;;;;;5074941;28;20392;-73
2022/05/21 11:09:52;;;;;;;15.70;6.50;;;21.20;99.90;;;;;;5074677;28;20028;-74
2022/05/21 11:12:23;;;;;;;15.27;5.50;;;21.20;99.90;;;;;;5075909;28;20025;-73
2022/05/21 11:15:03;;;;;;;9.50;6.60;;;21.60;99.90;;;;;;5075411;28;20040;-75
2022/05/21 11:17:59;;;;;;;11.73;6.93;;;21.80;99.80;;;;;;5076053;28;20028;-74
2022/05/21 11:20:30;;;;;;;9.95;6.78;;;22.20;99.90;;;;;;5073697;28;20095;-75
2022/05/21 11:22:58;;;;;;;12.40;8.13;;;22.50;99.90;;;;;;5072590;28;20107;-74
2022/05/21 11:25:37;;;;;;;13.93;6.70;;;22.50;99.90;;;;;;5077541;28;20024;-74
2022/05/21 11:28:14;;;;;;;14.25;7.05;;;22.40;99.20;;;;;;5075787;28;20031;-79
2022/05/21 11:30:40;;;;;;;11.82;7.50;;;22.10;98.90;;;;;;5076358;28;20082;-76
2022/05/21 11:38:51;;;;;;;13.50;6.95;;;21.70;99.40;;;;;;5072531;28;20044;-74
2022/05/21 11:41:27;;;;;;;13.65;7.10;;;21.60;99.90;;;;;;5076867;28;20036;-69
2022/05/21 11:47:06;;;;;;;10.45;5.95;;;21.30;99.00;;;;;;5072599;28;20046;-69
2022/05/21 11:49:55;;;;;;;12.10;7.25;;;21.10;98.90;;;;;;5075175;28;20020;-71
2022/05/21 11:52:27;;;;;;;15.52;7.97;;;21.20;99.90;;;;;;5072519;28;20500;-69
2022/05/21 11:54:59;;;;;;;14.60;7.10;;;21.10;99.90;;;;;;5074985;28;20032;-73
2022/05/21 11:57:32;;;;;;;12.47;6.83;;;21.20;99.50;;;;;;5076485;28;20065;-80
2022/05/21 11:59:59;;;;;;;9.57;6.07;;;20.90;99.10;;;;;;5076159;28;20473;-77
2022/05/21 12:02:27;;;;;;;10.77;6.75;;;21.00;98.80;;;;;;5077193;28;20414;-78
2022/05/21 12:04:55;;;;;;;9.68;5.93;;;21.00;99.20;;;;;;5073079;28;20112;-78
2022/05/21 12:07:43;;;;;;;9.82;5.80;;;21.00;99.00;;;;;;5076314;28;20025;-70
2022/05/21 12:10:28;;;;;;;10.75;6.75;;;20.80;99.30;;;;;;5072218;28;20398;-78
2022/05/21 12:13:16;;;;;;;13.88;5.97;;;20.80;99.20;;;;;;5074130;28;20036;-78
2022/05/21 12:15:48;;;;;;;10.77;5.75;;;20.80;99.40;;;;;;5075501;28;20039;-78
2022/05/21 12:18:46;;;;;;;12.27;7.03;;;20.90;99.60;;;;;;5070570;28;20024;-69
2022/05/21 12:21:30;;;;;;;16.00;7.50;;;20.80;99.10;;;;;;5073128;28;20033;-69
2022/05/21 12:23:55;;;;;;;11.98;7.07;;;20.80;99.70;;;;;;5075730;28;20032;-70
2022/05/21 12:26:41;;;;;;;14.85;7.45;;;20.80;98.70;;;;;;5074519;28;20411;-78
2022/05/21 12:29:28;;;;;;;13.32;6.95;;;20.90;99.60;;;;;;5075234;28;20036;-70
2022/05/21 12:31:59;;;;;;;11.80;7.40;;;21.10;99.10;;;;;;5072714;28;20043;-69
2022/05/21 12:34:34;;;;;;;10.95;7.10;;;21.00;97.60;;;;;;5074917;28;20459;-69
2022/05/21 12:37:17;;;;;;;15.32;8.50;;;21.00;98.40;;;;;;5070579;28;20042;-68
2022/05/21 12:40:01;;;;;;;12.00;6.95;;;21.00;98.80;;;;;;5069575;28;20024;-74
2022/05/21 12:42:47;;;;;;;7.57;5.15;;;21.00;99.50;;;;;;5074968;28;20392;-74
2022/05/21 12:45:43;;;;;;;10.27;5.38;;;21.10;98.30;;;;;;5073812;28;20032;-69
2022/05/21 12:48:18;;;;;;;7.90;5.57;;;21.40;98.20;;;;;;5075897;28;20461;-74
2022/05/21 12:51:04;;;;;;;8.48;5.18;;;21.50;98.40;;;;;;5070672;28;20040;-74
2022/05/21 12:53:46;;;;;;;10.65;5.20;;;21.90;97.60;;;;;;5073891;28;20489;-70
2022/05/21 12:56:24;;;;;;;7.55;5.45;;;22.10;97.20;;;;;;5070926;28;20028;-74
2022/05/21 12:59:07;;;;;;;12.27;5.65;;;22.40;96.20;;;;;;5065420;28;20024;-69
2022/05/21 13:01:35;;;;;;;10.05;4.95;;;22.10;94.40;;;;;;5065270;28;20528;-73
2022/05/21 13:04:02;;;;;;;8.73;5.00;;;22.10;95.50;;;;;;5064741;28;20024;-74
2022/05/21 13:06:31;;;;;;;11.10;4.50;;;22.20;96.50;;;;;;5049125;28;20020;-70
2022/05/21 13:09:00;;;;;;;11.13;4.53;;;22.20;95.70;;;;;;5061109;28;20059;-74
2022/05/21 13:11:35;;;;;;;8.25;4.22;;;22.40;97.20;;;;;;5064408;28;20033;-69
2022/05/21 13:14:10;;;;;;;8.98;4.82;;;22.30;95.60;;;;;;5068628;28;20078;-74
2022/05/21 13:16:49;;;;;;;10.52;4.10;;;22.20;94.70;;;;;;5063100;28;20085;-73
2022/05/21 13:19:32;;;;;;;9.60;4.00;;;22.20;94.60;;;;;;5064711;28;20476;-74
2022/05/21 13:21:57;;;;;;;;;;;22.30;96.00;;;;;;5073612;28;20040;-69
2022/05/21 13:24:42;;;;;;;9.55;4.05;;;22.60;96.00;;;;;;5067785;28;19908;-70
2022/05/21 13:27:13;;;;;;;7.57;4.32;;;22.80;95.00;;;;;;5073201;28;20792;-73
2022/05/21 13:29:40;;;;;;;8.45;4.43;;;22.80;93.00;;;;;;5068304;28;20020;-73
2022/05/21 13:32:18;;;;;;;9.88;3.78;;;22.90;94.80;;;;;;5071517;28;20107;-71
2022/05/21 13:34:44;;;;;;;9.50;4.85;;;23.00;94.10;;;;;;5068640;28;20024;-70
2022/05/21 13:37:11;;;;;;;7.43;3.90;;;22.90;94.20;;;;;;5065355;28;20031;-70